Time;durP1;ratioP1;P1;durP2;ratioP2;P2;SDS_P1;SDS_P2;PMS_P1;PMS_P2;Temp;Humidity;BMP_temperature;BMP_pressure;BME280_temperature;BME280_humidity;BME280_pressure;Samples;Min_cycle;Max_cycle;Signal;HPM_P1;HPM_P2
2022/06/09 00:01:22;;;;;;;3.70;3.50;;;;;;;21.97;84.18;98799.72;5054049;28;20193;-60
2022/06/09 00:03:55;;;;;;;3.93;3.73;;;;;;;22.08;84.39;98795.84;5052733;28;20283;-61
2022/06/09 00:06:23;;;;;;;4.13;3.90;;;;;;;22.13;83.81;98800.41;5052949;28;20668;-61
2022/06/09 00:08:52;;;;;;;4.03;3.73;;;;;;;21.98;83.38;98792.44;5052229;28;20196;-61
2022/06/09 00:11:24;;;;;;;4.20;3.47;;;;;;;21.69;84.85;98794.31;5053738;28;20189;-60
2022/06/09 00:13:51;;;;;;;3.83;3.53;;;;;;;21.33;86.98;98787.59;5053998;28;20216;-61
2022/06/09 00:16:18;;;;;;;3.90;3.70;;;;;;;21.29;86.98;98790.06;5053752;28;20197;-60
2022/06/09 00:18:44;;;;;;;3.43;3.30;;;;;;;21.28;87.08;98791.16;5053560;28;20701;-60
2022/06/09 00:21:11;;;;;;;3.63;3.53;;;;;;;21.24;87.00;98783.88;5053784;28;20193;-61
2022/06/09 00:23:38;;;;;;;4.63;4.23;;;;;;;20.96;88.22;98784.63;5053306;28;20639;-60
2022/06/09 00:26:06;;;;;;;4.27;3.97;;;;;;;20.85;89.00;98785.72;5053785;28;20254;-61
2022/06/09 00:28:34;;;;;;;4.70;4.50;;;;;;;20.79;89.86;98790.38;5053855;28;20246;-61
2022/06/09 00:31:01;;;;;;;4.20;4.00;;;;;;;20.83;89.88;98786.03;5053974;28;20247;-61
2022/06/09 00:33:28;;;;;;;4.90;4.60;;;;;;;20.88;90.13;98787.88;5053430;28;20256;-61
2022/06/09 00:35:55;;;;;;;4.80;4.40;;;;;;;20.94;90.55;98787.59;5053982;28;20242;-60
2022/06/09 00:38:21;;;;;;;4.30;4.00;;;;;;;21.08;89.86;98794.00;5052771;28;20242;-60
2022/06/09 00:40:48;;;;;;;4.33;3.90;;;;;;;21.02;89.48;98797.81;5053147;28;20197;-61
2022/06/09 00:43:15;;;;;;;4.00;3.80;;;;;;;21.12;89.59;98788.84;5052789;28;20201;-60
2022/06/09 00:45:50;;;;;;;4.30;4.03;;;;;;;20.86;88.99;98790.06;5052785;28;20842;-60
2022/06/09 00:48:27;;;;;;;3.80;3.60;;;;;;;20.85;88.96;98783.84;5054057;28;20184;-60
2022/06/09 00:51:00;;;;;;;4.07;3.87;;;;;;;20.98;88.24;98783.25;5053534;28;20271;-61
2022/06/09 00:53:39;;;;;;;4.00;3.70;;;;;;;21.04;87.53;98776.75;5052673;28;20274;-60
2022/06/09 00:56:09;;;;;;;3.53;3.33;;;;;;;21.17;87.25;98770.72;5052865;28;20184;-60
2022/06/09 00:58:39;;;;;;;3.57;3.37;;;;;;;21.17;87.05;98759.91;5053474;28;20201;-61
2022/06/09 01:01:12;;;;;;;3.67;3.53;;;;;;;21.13;86.70;98785.88;5054069;28;20189;-61
2022/06/09 01:03:41;;;;;;;3.60;3.40;;;;;;;21.04;88.03;98775.94;5054145;28;20196;-61
2022/06/09 01:06:12;;;;;;;3.90;3.70;;;;;;;21.08;86.75;98771.59;5052508;28;20653;-60
2022/06/09 01:08:47;;;;;;;3.80;3.60;;;;;;;21.03;86.97;98775.09;5052328;28;20609;-61
2022/06/09 01:11:13;;;;;;;3.40;3.20;;;;;;;21.11;86.79;98776.44;5052079;28;20660;-60
2022/06/09 01:13:41;;;;;;;3.33;3.23;;;;;;;21.26;86.11;98785.22;5052139;28;20626;-60
2022/06/09 01:16:16;;;;;;;3.30;3.20;;;;;;;21.21;85.57;98779.84;5052659;28;20196;-60
2022/06/09 01:18:52;;;;;;;5.20;3.53;;;;;;;21.20;86.48;98777.44;5052627;28;20188;-60
2022/06/09 01:21:46;;;;;;;3.73;3.57;;;;;;;21.32;85.71;98777.88;5052174;28;20648;-60
2022/06/09 01:24:44;;;;;;;3.70;3.50;;;;;;;21.34;85.91;98773.81;5051958;28;20246;-61
2022/06/09 01:27:18;;;;;;;4.60;3.87;;;;;;;21.21;85.74;98766.34;5052139;28;20271;-61
2022/06/09 01:29:52;;;;;;;3.90;3.70;;;;;;;21.25;85.98;98763.88;5052173;28;20242;-61
2022/06/09 01:32:27;;;;;;;3.93;3.73;;;;;;;21.29;86.25;98767.63;5052135;28;20266;-60
2022/06/09 01:35:11;;;;;;;4.63;4.30;;;;;;;21.29;86.02;98768.44;5051453;28;20189;-60
2022/06/09 01:37:41;;;;;;;4.47;4.17;;;;;;;21.26;85.80;98769.00;5051848;28;20185;-61
2022/06/09 01:40:10;;;;;;;4.40;4.10;;;;;;;20.97;88.04;98773.53;5051581;28;20425;-60
2022/06/09 01:42:40;;;;;;;5.03;4.07;;;;;;;20.97;88.01;98770.84;5052189;28;20261;-61
2022/06/09 01:45:10;;;;;;;3.90;3.70;;;;;;;20.96;87.96;98773.81;5052822;28;20192;-61
2022/06/09 01:47:44;;;;;;;4.13;3.83;;;;;;;21.06;87.75;98769.16;5052217;28;20210;-60
2022/06/09 01:50:15;;;;;;;3.93;3.73;;;;;;;21.07;87.55;98770.75;5051830;28;20275;-61
2022/06/09 01:52:44;;;;;;;4.47;4.17;;;;;;;21.01;87.95;98763.78;5051535;28;20254;-61
2022/06/09 01:55:16;;;;;;;3.70;3.60;;;;;;;20.86;89.02;98769.25;5051892;28;20660;-60
2022/06/09 01:57:44;;;;;;;4.43;4.10;;;;;;;20.71;89.91;98772.06;5051885;28;20197;-60
2022/06/09 02:00:14;;;;;;;4.20;4.00;;;;;;;20.75;90.31;98766.91;5051771;28;20622;-60
2022/06/09 02:02:48;;;;;;;5.00;4.47;;;;;;;20.72;90.47;98762.06;5051671;28;20254;-60
2022/06/09 02:05:20;;;;;;;4.50;4.20;;;;;;;20.90;90.27;98762.22;5052563;28;20215;-60
2022/06/09 02:07:48;;;;;;;4.33;4.03;;;;;;;21.03;89.26;98753.50;5051564;28;20193;-61
2022/06/09 02:10:21;;;;;;;4.07;3.87;;;;;;;20.99;88.58;98757.84;5052091;28;20200;-60
2022/06/09 02:12:50;;;;;;;5.53;3.50;;;;;;;20.86;90.07;98768.47;5052592;28;20208;-60
2022/06/09 02:15:24;;;;;;;4.07;3.87;;;;;;;21.00;89.05;98767.59;5052348;28;20287;-60
2022/06/09 02:17:53;;;;;;;3.80;3.37;;;;;;;21.12;88.65;98756.44;5051608;28;20242;-60
2022/06/09 02:20:23;;;;;;;3.33;3.23;;;;;;;21.18;88.12;98761.50;5051833;28;20196;-60
2022/06/09 02:22:51;;;;;;;4.07;3.77;;;;;;;21.02;88.85;98773.50;5051661;28;20185;-60
2022/06/09 02:25:18;;;;;;;3.83;3.50;;;;;;;21.02;88.37;98761.91;5051779;28;20193;-60
2022/06/09 02:27:45;;;;;;;4.00;3.73;;;;;;;21.04;88.35;98765.94;5051414;28;20197;-60
2022/06/09 02:30:13;;;;;;;4.20;3.80;;;;;;;21.07;88.42;98759.19;5051684;28;20246;-60
2022/06/09 02:32:40;;;;;;;20.67;4.70;;;;;;;21.05;88.35;98758.63;5051533;28;20220;-60
2022/06/09 02:35:09;;;;;;;4.13;3.93;;;;;;;20.81;89.49;98758.50;5051638;28;20246;-61
2022/06/09 02:37:36;;;;;;;4.20;3.87;;;;;;;20.75;90.35;98765.03;5051178;28;20196;-60
2022/06/09 02:40:03;;;;;;;4.20;4.00;;;;;;;20.80;90.58;98754.19;5051589;28;20306;-60
2022/06/09 02:42:30;;;;;;;4.23;4.03;;;;;;;20.81;90.17;98761.19;5051525;28;20197;-60
2022/06/09 02:44:57;;;;;;;4.53;4.30;;;;;;;20.72;90.16;98757.47;5050920;28;20566;-61
2022/06/09 02:47:24;;;;;;;5.70;4.80;;;;;;;20.64;90.88;98758.06;5054576;28;20741;-60
2022/06/09 02:49:50;;;;;;;5.10;4.80;;;;;;;20.71;91.45;98761.28;5055023;28;20254;-60
2022/06/09 02:52:18;;;;;;;5.00;4.60;;;;;;;20.74;90.71;98754.50;5055164;28;20565;-60
2022/06/09 02:54:45;;;;;;;4.80;4.50;;;;;;;20.71;91.33;98760.47;5054665;28;20250;-60
2022/06/09 02:57:12;;;;;;;4.73;4.43;;;;;;;20.83;90.90;98755.53;5054909;28;20201;-60
2022/06/09 02:59:39;;;;;;;4.90;4.50;;;;;;;20.94;90.12;98755.19;5055125;28;20270;-60
2022/06/09 03:02:05;;;;;;;7.53;4.40;;;;;;;21.05;89.29;98755.94;5054569;28;20192;-60
2022/06/09 03:04:32;;;;;;;5.67;5.27;;;;;;;21.08;89.35;98758.91;5054843;28;20201;-60
2022/06/09 03:06:59;;;;;;;5.77;5.30;;;;;;;21.11;88.88;98760.22;5055490;28;20196;-60
2022/06/09 03:09:27;;;;;;;5.57;5.30;;;;;;;21.14;88.54;98760.47;5055039;28;20675;-60
2022/06/09 03:11:54;;;;;;;6.17;5.67;;;;;;;21.18;88.53;98758.81;5054472;28;20629;-60
2022/06/09 03:14:21;;;;;;;6.10;5.70;;;;;;;21.14;87.96;98757.75;5054887;28;20216;-60
2022/06/09 03:16:48;;;;;;;6.40;6.10;;;;;;;21.06;88.61;98761.06;5054936;28;20201;-60
2022/06/09 03:19:14;;;;;;;7.13;6.50;;;;;;;21.08;88.79;98761.59;5055005;28;20188;-60
2022/06/09 03:21:41;;;;;;;6.83;6.33;;;;;;;21.15;88.85;98766.69;5055349;28;20193;-60
2022/06/09 03:24:08;;;;;;;8.33;7.63;;;;;;;21.24;87.93;98765.78;5054995;28;20197;-60
2022/06/09 03:26:36;;;;;;;7.97;7.47;;;;;;;21.26;87.68;98762.78;5054621;28;20198;-60
2022/06/09 03:29:03;;;;;;;8.60;8.00;;;;;;;21.25;87.50;98763.88;5054199;28;20200;-60
2022/06/09 03:31:30;;;;;;;8.63;7.80;;;;;;;21.30;87.17;98759.25;5054640;28;20197;-60
2022/06/09 03:33:57;;;;;;;10.43;9.30;;;;;;;21.29;86.81;98763.03;5054322;28;20224;-60
2022/06/09 03:36:24;;;;;;;8.77;8.17;;;;;;;21.30;86.59;98758.44;5053908;28;20675;-60
2022/06/09 03:38:51;;;;;;;14.57;8.00;;;;;;;21.33;86.20;98753.28;5054331;28;20228;-60
2022/06/09 03:41:17;;;;;;;11.97;7.50;;;;;;;21.39;86.20;98756.75;5054250;28;20200;-60
2022/06/09 03:43:45;;;;;;;8.27;7.80;;;;;;;21.50;85.65;98759.09;5054259;28;20560;-60
2022/06/09 03:46:13;;;;;;;8.77;8.07;;;;;;;21.61;85.38;98757.09;5054002;28;20655;-60
2022/06/09 03:48:40;;;;;;;7.73;7.30;;;;;;;21.69;84.68;98757.28;5054155;28;20745;-61
2022/06/09 03:51:06;;;;;;;8.20;7.50;;;;;;;21.61;84.10;98755.19;5053821;28;20292;-60
2022/06/09 03:53:33;;;;;;;7.87;7.20;;;;;;;21.54;84.20;98760.13;5053708;28;20224;-60
2022/06/09 03:56:00;;;;;;;7.77;7.17;;;;;;;21.62;83.60;98759.50;5053853;28;20617;-60
2022/06/09 03:58:27;;;;;;;8.60;6.60;;;;;;;21.72;83.94;98762.13;5052542;28;20197;-60
2022/06/09 04:00:55;;;;;;;8.53;7.27;;;;;;;21.82;83.23;98762.03;5054151;28;20627;-60
2022/06/09 04:03:21;;;;;;;16.57;6.73;;;;;;;21.92;82.85;98767.34;5053990;28;20660;-60
2022/06/09 04:05:48;;;;;;;5.87;3.70;;;;;;;22.17;83.05;98764.34;5053771;28;20242;-58
2022/06/09 04:08:15;;;;;;;7.83;5.03;;;;;;;22.66;80.97;98770.25;5053359;28;20189;-58
2022/06/09 04:10:42;;;;;;;5.67;5.27;;;;;;;23.09;79.19;98771.81;5054008;28;20197;-57
2022/06/09 04:13:08;;;;;;;6.17;5.67;;;;;;;23.48;77.15;98774.97;5053688;28;20224;-57
2022/06/09 04:15:36;;;;;;;7.80;4.50;;;;;;;23.84;74.98;98778.69;5054111;28;20258;-57
2022/06/09 04:18:05;;;;;;;6.80;6.30;;;;;;;24.18;72.74;98784.56;5053940;28;20226;-57
2022/06/09 04:20:33;;;;;;;5.37;4.93;;;;;;;24.46;71.92;98788.91;5053283;28;20192;-57
2022/06/09 04:22:59;;;;;;;14.23;5.37;;;;;;;24.73;71.71;98790.81;5053598;28;20194;-57
2022/06/09 04:25:26;;;;;;;8.17;5.10;;;;;;;25.08;70.35;98797.38;5053275;28;20622;-58
2022/06/09 04:27:53;;;;;;;5.60;4.50;;;;;;;25.40;68.51;98794.47;5053309;28;20330;-57
2022/06/09 04:30:20;;;;;;;5.80;5.23;;;;;;;25.73;67.56;98793.09;5053113;28;20197;-57
2022/06/09 04:32:47;;;;;;;46.70;7.77;;;;;;;25.99;65.77;98786.69;5052829;28;20192;-57
2022/06/09 04:35:16;;;;;;;20.53;6.07;;;;;;;26.27;65.27;98790.00;5053169;28;20416;-58
2022/06/09 04:38:01;;;;;;;8.43;5.30;;;;;;;26.62;64.09;98778.16;5052606;28;20250;-57
2022/06/09 04:40:29;;;;;;;13.90;6.83;;;;;;;27.32;60.64;98786.88;5052643;28;20224;-58
2022/06/09 04:42:56;;;;;;;6.53;5.60;;;;;;;28.10;58.66;98786.44;5052714;28;20196;-57
2022/06/09 04:45:23;;;;;;;8.63;5.20;;;;;;;29.39;53.67;98801.75;5053002;28;20273;-57
2022/06/09 04:47:50;;;;;;;8.77;5.07;;;;;;;30.72;49.32;98811.91;5053212;28;20254;-58
2022/06/09 04:50:20;;;;;;;6.13;4.90;;;;;;;31.96;45.30;98814.41;5053041;28;20250;-58
2022/06/09 04:52:47;;;;;;;8.27;6.47;;;;;;;33.10;41.11;98817.66;5052903;28;20200;-58
2022/06/09 04:55:13;;;;;;;7.60;6.77;;;;;;;33.06;40.71;98816.78;5053365;28;20216;-59
2022/06/09 04:57:40;;;;;;;8.20;6.50;;;;;;;31.73;42.61;98803.16;5052256;28;20200;-58
2022/06/09 05:00:10;;;;;;;5.87;5.47;;;;;;;31.36;44.25;98796.22;5052922;28;20733;-59
2022/06/09 05:02:37;;;;;;;6.30;5.13;;;;;;;31.14;45.39;98807.72;5053614;28;20250;-59
2022/06/09 05:05:05;;;;;;;6.20;5.13;;;;;;;30.87;45.83;98800.22;5053187;28;20258;-58
2022/06/09 05:07:33;;;;;;;8.40;5.97;;;;;;;30.80;46.13;98810.19;5052743;28;20238;-58
2022/06/09 05:09:59;;;;;;;5.70;5.17;;;;;;;30.49;46.80;98801.72;5052825;28;20188;-58
2022/06/09 05:12:27;;;;;;;7.40;4.90;;;;;;;30.38;47.80;98801.34;5053006;28;20201;-58
2022/06/09 05:14:53;;;;;;;7.50;4.90;;;;;;;30.27;48.09;98808.44;5053445;28;20314;-58
2022/06/09 05:17:20;;;;;;;8.60;6.30;;;;;;;30.15;48.93;98804.88;5049606;28;20258;-58
2022/06/09 05:19:47;;;;;;;10.47;5.87;;;;;;;30.75;47.96;98810.44;5036551;28;20197;-58
2022/06/09 05:22:14;;;;;;;5.77;5.13;;;;;;;31.40;45.86;98810.09;5052645;28;20200;-58
2022/06/09 05:24:43;;;;;;;5.70;4.80;;;;;;;31.77;44.57;98814.31;5052052;28;20279;-58
2022/06/09 05:27:11;;;;;;;7.00;4.67;;;;;;;32.22;43.41;98822.97;5052383;28;20193;-58
2022/06/09 05:29:37;;;;;;;6.97;6.00;;;;;;;32.70;42.02;98809.66;5052164;28;20200;-58
2022/06/09 05:32:05;;;;;;;12.27;5.60;;;;;;;33.06;41.07;98817.59;5052631;28;20200;-58
2022/06/09 05:34:32;;;;;;;6.33;4.63;;;;;;;33.17;40.86;98813.13;5052030;28;20216;-59
2022/06/09 05:36:58;;;;;;;7.03;3.97;;;;;;;33.63;39.84;98818.81;5047080;28;20611;-58
2022/06/09 05:44:57;;;;;;;14.85;4.72;;;;;;;34.65;37.45;98797.47;5051275;28;20203;-59
2022/06/09 05:47:25;;;;;;;4.65;4.30;;;;;;;34.13;38.05;98802.09;5043893;28;20254;-58
2022/06/09 05:49:53;;;;;;;3.75;3.45;;;;;;;33.66;39.08;98804.31;5047735;28;20186;-58
2022/06/09 05:52:23;;;;;;;6.43;4.63;;;;;;;33.08;40.00;98807.00;5032484;28;20193;-62
2022/06/09 05:54:51;;;;;;;5.53;4.13;;;;;;;32.36;41.86;98796.66;5048087;28;20211;-62
2022/06/09 05:57:20;;;;;;;7.63;5.10;;;;;;;31.82;43.48;98792.06;5051875;28;20577;-62
2022/06/09 05:59:47;;;;;;;9.80;5.43;;;;;;;31.49;43.73;98791.50;5051939;28;20204;-62
2022/06/09 06:02:15;;;;;;;8.50;4.73;;;;;;;30.89;46.01;98784.22;5052780;28;20216;-62
2022/06/09 06:04:42;;;;;;;4.20;3.80;;;;;;;30.58;46.16;98781.25;5052136;28;20203;-62
2022/06/09 06:07:09;;;;;;;9.57;5.60;;;;;;;30.24;47.86;98778.97;5051840;28;20242;-61
2022/06/09 06:09:36;;;;;;;9.43;5.30;;;;;;;29.66;48.34;98773.81;5051881;28;20196;-60
2022/06/09 06:12:03;;;;;;;8.80;5.23;;;;;;;29.42;49.66;98773.72;5052090;28;20204;-60
2022/06/09 06:14:32;;;;;;;15.67;5.47;;;;;;;29.28;49.72;98768.50;5052090;28;20332;-60
2022/06/09 06:16:59;;;;;;;8.03;5.20;;;;;;;29.16;49.34;98775.88;5051007;28;20193;-60
2022/06/09 06:19:26;;;;;;;7.97;4.43;;;;;;;29.00;50.37;98769.41;5051310;28;20192;-61
2022/06/09 06:21:54;;;;;;;14.80;6.17;;;;;;;28.97;50.05;98772.78;5054129;28;20203;-60
2022/06/09 06:24:23;;;;;;;9.30;4.43;;;;;;;28.98;51.66;98775.19;5056084;28;20258;-60
2022/06/09 06:26:50;;;;;;;5.63;4.20;;;;;;;29.25;51.57;98771.13;5055970;28;20200;-60
2022/06/09 06:29:19;;;;;;;4.13;3.83;;;;;;;29.61;50.20;98776.78;5055982;28;20200;-60
2022/06/09 06:31:47;;;;;;;13.07;4.27;;;;;;;30.28;48.40;98762.66;5055513;28;20250;-59
2022/06/09 06:34:16;;;;;;;5.50;3.50;;;;;;;30.59;46.35;98762.88;5055567;28;20773;-60
2022/06/09 06:36:43;;;;;;;10.67;4.17;;;;;;;30.74;46.48;98765.72;5055802;28;20279;-59
2022/06/09 06:39:10;;;;;;;4.30;3.80;;;;;;;31.08;44.83;98770.72;5055715;28;20286;-60
2022/06/09 06:41:38;;;;;;;5.17;4.77;;;;;;;31.35;44.31;98774.66;5055856;28;20196;-59
2022/06/09 06:44:05;;;;;;;5.20;4.80;;;;;;;31.53;43.14;98776.75;5055984;28;20196;-60
2022/06/09 06:46:32;;;;;;;6.27;5.00;;;;;;;31.59;42.69;98789.06;5055608;28;20192;-59
2022/06/09 06:49:00;;;;;;;4.30;3.90;;;;;;;31.36;43.38;98776.25;5055805;28;20200;-60
2022/06/09 06:51:27;;;;;;;4.23;3.83;;;;;;;31.71;42.25;98777.19;5055058;28;20757;-60
2022/06/09 06:53:54;;;;;;;5.10;3.30;;;;;;;31.89;44.63;98776.56;5055297;28;20216;-61
2022/06/09 06:56:20;;;;;;;5.07;3.43;;;;;;;32.13;43.46;98772.88;5055243;28;20275;-60
2022/06/09 06:58:47;;;;;;;3.07;2.87;;;;;;;32.18;41.81;98776.13;5055157;28;20630;-60
2022/06/09 07:01:15;;;;;;;3.60;3.27;;;;;;;32.31;40.25;98772.19;5054963;28;20653;-59
2022/06/09 07:03:41;;;;;;;3.47;3.23;;;;;;;32.74;39.06;98772.03;5055369;28;20197;-60
2022/06/09 07:06:10;;;;;;;4.70;3.07;;;;;;;33.17;37.36;98769.09;5055348;28;20192;-59
2022/06/09 07:08:36;;;;;;;3.43;2.97;;;;;;;33.28;36.91;98778.34;5054569;28;20197;-60
2022/06/09 07:11:04;;;;;;;5.03;3.13;;;;;;;33.14;36.95;98774.50;5055371;28;20292;-60
2022/06/09 07:13:31;;;;;;;4.13;3.73;;;;;;;33.02;37.48;98775.44;5055218;28;20200;-60
2022/06/09 07:15:58;;;;;;;3.63;3.33;;;;;;;33.00;38.41;98769.47;5054633;28;20221;-60
2022/06/09 07:18:24;;;;;;;6.30;4.00;;;;;;;33.03;38.48;98770.75;5055000;28;20192;-60
2022/06/09 07:20:51;;;;;;;3.53;3.33;;;;;;;33.39;37.58;98766.78;5055012;28;20274;-61
2022/06/09 07:23:19;;;;;;;3.33;3.10;;;;;;;33.52;37.41;98765.47;5054669;28;20637;-60
2022/06/09 07:25:46;;;;;;;6.97;3.17;;;;;;;33.64;37.46;98757.81;5054466;28;20254;-60
2022/06/09 07:28:14;;;;;;;4.90;3.35;;;;;;;33.89;36.14;98755.56;5054470;28;20244;-60
2022/06/09 07:30:42;;;;;;;5.75;3.83;;;;;;;34.14;36.07;98754.03;5054571;28;20660;-60
2022/06/09 07:33:09;;;;;;;5.25;3.70;;;;;;;34.39;35.57;98747.00;5054740;28;20205;-60
2022/06/09 07:35:37;;;;;;;7.43;4.03;;;;;;;34.63;35.39;98747.38;5054788;28;20270;-60
2022/06/09 07:38:06;;;;;;;4.18;3.95;;;;;;;34.37;34.96;98746.56;5054736;28;20287;-59
2022/06/09 07:40:34;;;;;;;5.03;4.00;;;;;;;33.89;35.69;98750.88;5054860;28;20236;-59
2022/06/09 07:43:03;;;;;;;4.28;3.95;;;;;;;33.01;37.32;98748.25;5054487;28;20250;-60
2022/06/09 07:45:29;;;;;;;4.20;4.00;;;;;;;31.73;39.87;98742.72;5055197;28;20204;-61
2022/06/09 07:47:56;;;;;;;14.43;5.13;;;;;;;30.85;42.78;98739.44;5054162;28;20196;-61
2022/06/09 07:50:23;;;;;;;4.63;4.23;;;;;;;30.47;45.09;98733.53;5054244;28;20192;-61
2022/06/09 07:52:50;;;;;;;7.93;7.17;;;;;;;29.98;46.02;98737.38;5054251;28;20199;-61
2022/06/09 07:55:17;;;;;;;9.27;7.03;;;;;;;30.09;46.91;98733.03;5054229;28;20224;-60
2022/06/09 07:57:45;;;;;;;7.23;6.53;;;;;;;30.08;46.22;98728.69;5054391;28;20270;-60
2022/06/09 08:00:14;;;;;;;8.03;6.00;;;;;;;29.40;48.10;98732.22;5054329;28;20192;-62
2022/06/09 08:02:42;;;;;;;6.27;5.70;;;;;;;28.87;49.82;98724.75;5054290;28;20291;-61
2022/06/09 08:05:10;;;;;;;5.27;4.77;;;;;;;28.75;51.11;98727.41;5054633;28;20223;-60
2022/06/09 08:07:37;;;;;;;5.87;5.33;;;;;;;29.37;49.41;98732.06;5054011;28;20195;-60
2022/06/09 08:10:06;;;;;;;11.80;7.27;;;;;;;29.98;48.01;98726.44;5054637;28;20197;-61
2022/06/09 08:12:33;;;;;;;8.00;6.50;;;;;;;30.52;46.09;98736.03;5053738;28;20655;-60
2022/06/09 08:15:03;;;;;;;8.43;5.47;;;;;;;30.82;45.77;98723.66;5053549;28;20225;-60
2022/06/09 08:17:30;;;;;;;11.10;5.73;;;;;;;30.98;44.73;98727.28;5053621;28;20287;-60
2022/06/09 08:19:56;;;;;;;13.57;5.93;;;;;;;30.60;46.40;98720.59;5053903;28;20196;-60
2022/06/09 08:22:23;;;;;;;6.63;6.00;;;;;;;30.50;46.01;98729.31;5053766;28;20196;-59
2022/06/09 08:24:50;;;;;;;8.47;6.13;;;;;;;30.18;47.28;98728.28;5053972;28;20224;-60
2022/06/09 08:27:17;;;;;;;9.07;6.77;;;;;;;30.31;45.59;98729.88;5053319;28;20250;-61
2022/06/09 08:29:44;;;;;;;8.50;6.40;;;;;;;29.14;49.71;98720.69;5054180;28;20193;-59
2022/06/09 08:32:13;;;;;;;9.70;6.40;;;;;;;29.63;48.17;98719.75;5053463;28;20278;-59
2022/06/09 08:34:40;;;;;;;8.33;7.00;;;;;;;29.88;47.17;98706.91;5053316;28;20256;-60
2022/06/09 08:37:07;;;;;;;7.80;6.73;;;;;;;30.30;46.26;98705.56;5054288;28;20270;-60
2022/06/09 08:39:34;;;;;;;12.70;5.90;;;;;;;30.63;45.80;98704.28;5053459;28;20315;-59
2022/06/09 08:42:19;;;;;;;7.63;6.60;;;;;;;30.82;45.15;98695.44;5053188;28;20196;-60
2022/06/09 08:44:50;;;;;;;9.97;5.13;;;;;;;31.14;44.37;98692.47;5052750;28;20652;-60
2022/06/09 08:47:30;;;;;;;6.27;5.87;;;;;;;31.50;43.21;98683.25;5053892;28;20242;-60
2022/06/09 08:50:02;;;;;;;9.03;5.73;;;;;;;31.60;42.46;98691.78;5053825;28;20246;-60
2022/06/09 08:52:44;;;;;;;7.40;5.17;;;;;;;31.99;41.35;98685.38;5053248;28;20193;-61
2022/06/09 08:55:21;;;;;;;9.40;4.83;;;;;;;32.00;40.45;98675.16;5053485;28;20278;-60
2022/06/09 08:57:50;;;;;;;4.97;4.50;;;;;;;32.15;41.69;98677.91;5052816;28;20188;-59
2022/06/09 09:00:20;;;;;;;5.27;4.03;;;;;;;32.44;39.04;98680.19;5052824;28;20288;-60
2022/06/09 09:02:52;;;;;;;3.93;3.50;;;;;;;32.53;37.80;98678.03;5053679;28;20626;-60
2022/06/09 09:05:25;;;;;;;5.30;4.03;;;;;;;32.85;36.70;98674.03;5053695;28;20552;-59
2022/06/09 09:07:56;;;;;;;5.43;3.30;;;;;;;33.05;36.35;98678.38;5053091;28;20268;-59
2022/06/09 09:10:31;;;;;;;6.57;3.33;;;;;;;33.39;36.40;98681.41;5052683;28;20234;-62
2022/06/09 09:13:19;;;;;;;4.00;3.70;;;;;;;33.44;35.57;98670.09;5052521;28;20188;-59
2022/06/09 09:15:50;;;;;;;3.75;3.47;;;;;;;33.64;35.12;98671.63;5052600;28;20307;-59
2022/06/09 09:18:28;;;;;;;3.42;3.22;;;;;;;33.57;34.71;98668.75;5052532;28;20625;-59
2022/06/09 09:21:10;;;;;;;3.80;3.30;;;;;;;33.82;34.56;98662.53;5052843;28;20216;-59
2022/06/09 09:23:41;;;;;;;3.20;3.00;;;;;;;33.71;36.12;98660.75;5052589;28;20637;-58
2022/06/09 09:26:22;;;;;;;9.82;3.33;;;;;;;33.87;35.24;98664.97;5053087;28;20285;-62
2022/06/09 09:28:51;;;;;;;5.60;3.15;;;;;;;34.09;33.38;98666.13;5038144;28;20641;-62
2022/06/09 09:31:32;;;;;;;4.47;3.60;;;;;;;33.77;34.17;98665.56;5033380;28;20284;-61
2022/06/09 09:34:03;;;;;;;4.50;3.10;;;;;;;33.38;34.75;98657.75;5032801;28;20270;-61
2022/06/09 09:36:35;;;;;;;3.95;3.60;;;;;;;33.70;34.62;98654.44;5032944;28;20267;-61
2022/06/09 09:39:11;;;;;;;3.75;3.47;;;;;;;33.46;34.26;98648.47;5032625;28;20255;-61
2022/06/09 09:41:40;;;;;;;3.75;3.50;;;;;;;33.59;33.40;98647.94;5032892;28;20315;-61
2022/06/09 09:44:16;;;;;;;4.45;2.90;;;;;;;33.53;33.01;98648.59;5032454;28;20197;-61
2022/06/09 09:46:47;;;;;;;3.33;2.90;;;;;;;33.42;33.80;98639.34;5032440;28;20247;-62
2022/06/09 09:49:23;;;;;;;2.30;2.20;;;;;;;33.64;31.23;98641.31;5032484;28;20536;-62
2022/06/09 09:51:50;;;;;;;2.67;2.47;;;;;;;33.74;32.29;98637.94;5032412;28;20185;-62
2022/06/09 09:54:23;;;;;;;3.65;2.70;;;;;;;33.91;31.11;98632.75;5032103;28;20198;-62
2022/06/09 09:56:49;;;;;;;2.63;2.42;;;;;;;33.86;31.55;98624.81;5040578;28;20262;-62
2022/06/09 09:59:24;;;;;;;2.75;2.65;;;;;;;33.68;33.13;98625.66;5052119;28;20621;-63
2022/06/09 10:10:29;;;;;;;5.87;5.30;;;;;;;32.47;38.05;98604.41;5027813;28;20185;-63
2022/06/09 10:12:57;;;;;;;5.93;4.80;;;;;;;32.03;39.66;98595.56;5032171;28;20193;-61
2022/06/09 10:15:26;;;;;;;5.53;5.07;;;;;;;31.95;39.35;98607.53;5044776;28;20265;-61
2022/06/09 10:17:59;;;;;;;6.37;5.83;;;;;;;31.87;39.87;98605.78;5052539;28;20220;-63
2022/06/09 10:20:38;;;;;;;8.67;5.63;;;;;;;30.65;43.56;98589.53;5051789;28;20563;-65
2022/06/09 10:23:29;;;;;;;6.87;5.00;;;;;;;30.69;43.36;98587.72;5061549;28;20184;-63
2022/06/09 10:26:03;;;;;;;7.00;5.07;;;;;;;30.91;40.91;98597.34;5031691;28;20195;-62
2022/06/09 10:28:37;;;;;;;5.17;4.83;;;;;;;30.03;42.82;98589.22;5043841;28;20221;-62
2022/06/09 10:31:13;;;;;;;5.07;4.60;;;;;;;30.54;41.53;98580.19;5051658;28;20242;-62
2022/06/09 10:33:50;;;;;;;4.67;4.33;;;;;;;30.92;40.21;98579.72;5051275;28;20204;-59
2022/06/09 10:36:23;;;;;;;4.87;4.57;;;;;;;30.35;42.12;98577.31;5051959;28;20212;-59
2022/06/09 10:38:56;;;;;;;4.70;4.20;;;;;;;30.81;40.71;98568.47;5052148;28;20239;-58
2022/06/09 10:41:42;;;;;;;4.53;4.07;;;;;;;30.97;41.15;98555.59;5051978;28;20188;-59
2022/06/09 10:44:18;;;;;;;4.53;4.17;;;;;;;30.05;42.25;98561.50;5052268;28;20189;-59
2022/06/09 10:55:14;;;;;;;4.70;4.27;;;;;;;30.17;42.75;98565.00;5052028;28;20193;-61
2022/06/09 10:55:27;;;;;;;5.93;4.17;;;;;;;29.93;43.96;98543.13;5051471;28;20755;-59
2022/06/09 10:58:13;;;;;;;6.43;4.43;;;;;;;29.94;44.69;98533.78;5051395;28;20257;-60
2022/06/09 11:00:42;;;;;;;4.73;3.80;;;;;;;29.80;44.31;98532.53;5031924;28;20193;-61
2022/06/09 11:03:14;;;;;;;5.17;4.60;;;;;;;29.70;44.66;98528.34;5031286;28;20654;-60
2022/06/09 11:05:57;;;;;;;4.30;4.10;;;;;;;28.87;45.93;98527.88;5031512;28;20189;-59
2022/06/09 11:08:31;;;;;;;5.80;4.33;;;;;;;28.91;46.94;98530.75;5034389;28;20189;-59
2022/06/09 11:11:07;;;;;;;5.60;4.27;;;;;;;28.99;47.08;98524.38;5041369;28;20240;-60
2022/06/09 11:13:51;;;;;;;4.40;4.00;;;;;;;28.87;47.62;98508.72;5055250;28;20188;-60
2022/06/09 11:16:24;;;;;;;3.87;3.67;;;;;;;28.97;45.14;98507.50;5055134;28;20636;-59
2022/06/09 11:19:03;;;;;;;4.37;4.00;;;;;;;28.89;46.35;98502.91;5055272;28;20177;-61
2022/06/09 11:21:40;;;;;;;4.53;4.10;;;;;;;29.10;45.55;98493.53;5063704;28;20606;-61
2022/06/09 11:24:19;;;;;;;4.27;3.97;;;;;;;29.20;46.01;98506.75;5069415;28;20193;-61
2022/06/09 11:26:51;;;;;;;4.60;4.40;;;;;;;28.70;47.36;98499.91;5055762;28;20197;-60
2022/06/09 11:29:38;;;;;;;6.00;4.20;;;;;;;28.62;46.60;98509.00;5035924;28;20231;-59
2022/06/09 11:32:12;;;;;;;4.17;3.87;;;;;;;28.65;46.71;98503.66;5035017;28;20185;-59
2022/06/09 11:34:52;;;;;;;5.43;4.27;;;;;;;28.73;46.78;98504.72;5053274;28;20196;-59
2022/06/09 11:37:33;;;;;;;6.57;4.00;;;;;;;28.99;46.63;98497.03;5054681;28;20706;-59
2022/06/09 11:40:15;;;;;;;3.90;3.70;;;;;;;29.30;44.92;98489.09;5055518;28;20232;-59
2022/06/09 11:42:55;;;;;;;4.73;3.43;;;;;;;29.38;45.00;98493.66;5054481;28;20184;-59
2022/06/09 11:45:28;;;;;;;3.87;3.67;;;;;;;29.70;42.67;98500.13;5054082;28;20188;-59
2022/06/09 11:47:58;;;;;;;3.73;3.53;;;;;;;29.47;42.94;98505.25;5055471;28;20181;-59
2022/06/09 11:50:32;;;;;;;3.73;3.43;;;;;;;29.71;42.35;98497.06;5054303;28;20193;-59
2022/06/09 11:53:00;;;;;;;3.77;3.47;;;;;;;29.27;44.12;98492.50;5054331;28;20196;-58
2022/06/09 11:58:45;;;;;;;7.03;3.57;;;;;;;29.71;42.08;98504.47;5048752;28;20200;-58
2022/06/09 12:01:26;;;;;;;3.90;3.30;;;;;;;29.39;42.79;98510.88;5044589;28;20192;-58
2022/06/09 12:04:06;;;;;;;3.47;3.20;;;;;;;29.66;42.04;98513.72;5055072;28;20181;-58
2022/06/09 12:06:51;;;;;;;3.77;3.47;;;;;;;29.84;41.78;98514.28;5053615;28;20620;-58
2022/06/09 12:09:25;;;;;;;3.20;2.90;;;;;;;30.08;39.75;98517.75;5033652;28;20251;-59